Time;durP1;ratioP1;P1;durP2;ratioP2;P2;SDS_P1;SDS_P2;PMS_P1;PMS_P2;Temp;Humidity;BMP_temperature;BMP_pressure;BME280_temperature;BME280_humidity;BME280_pressure;Samples;Min_cycle;Max_cycle;Signal;HPM_P1;HPM_P2
2023/03/25 00:01:31;;;;;;;3.63;1.20;;;;;;;;;;5033976;28;20021;-75
2023/03/25 00:03:59;;;;;;;1.52;1.10;;;;;;;;;;5033512;28;20032;-72
2023/03/25 00:06:25;;;;;;;2.95;1.10;;;;;;;;;;5033622;28;20029;-72
2023/03/25 00:08:50;;;;;;;3.35;1.20;;;;;;;;;;5033142;28;20488;-71
2023/03/25 00:11:16;;;;;;;2.83;1.40;;;;;;;;;;5031172;28;20029;-72
2023/03/25 00:13:41;;;;;;;2.70;1.20;;;;;;;;;;5030556;28;20032;-72
2023/03/25 00:16:08;;;;;;;4.43;1.33;;;;;;;;;;5031869;28;20033;-73
2023/03/25 00:18:34;;;;;;;4.25;1.40;;;;;;;;;;5030783;28;20074;-71
2023/03/25 00:21:01;;;;;;;6.05;1.30;;;;;;;;;;5030819;28;20022;-72
2023/03/25 00:23:28;;;;;;;3.65;1.17;;;;;;;;;;5031216;28;20049;-71
2023/03/25 00:25:59;;;;;;;5.65;1.38;;;;;;;;;;5030841;28;20166;-72
2023/03/25 00:28:27;;;;;;;2.88;1.20;;;;;;;;;;5030438;28;20714;-72
2023/03/25 00:30:52;;;;;;;2.63;1.30;;;;;;;;;;5030938;28;20052;-72
2023/03/25 00:33:17;;;;;;;6.05;1.27;;;;;;;;;;5031115;28;20476;-71
2023/03/25 00:35:43;;;;;;;5.82;1.25;;;;;;;;;;5032932;28;20033;-71
2023/03/25 00:38:09;;;;;;;4.25;1.40;;;;;;;;;;5032830;28;20465;-71
2023/03/25 00:40:34;;;;;;;3.95;1.13;;;;;;;;;;5032756;28;20034;-72
2023/03/25 00:43:01;;;;;;;4.25;1.63;;;;;;;;;;5032767;28;20083;-71
2023/03/25 00:45:27;;;;;;;2.42;1.08;;;;;;;;;;5032732;28;20033;-72
2023/03/25 00:47:52;;;;;;;3.92;1.30;;;;;;;;;;5032961;28;20021;-71
2023/03/25 00:50:17;;;;;;;8.10;1.23;;;;;;;;;;5032961;28;20072;-72
2023/03/25 00:52:43;;;;;;;4.95;1.40;;;;;;;;;;5032722;28;20064;-71
2023/03/25 00:55:08;;;;;;;5.82;1.80;;;;;;;;;;5032001;28;20028;-71
2023/03/25 00:57:34;;;;;;;3.55;1.20;;;;;;;;;;5032465;28;20124;-72
2023/03/25 01:00:00;;;;;;;2.38;1.10;;;;;;;;;;5031213;28;20072;-71
2023/03/25 01:02:25;;;;;;;2.30;1.02;;;;;;;;;;5032868;28;20033;-72
2023/03/25 01:04:50;;;;;;;2.70;1.30;;;;;;;;;;5032927;28;20026;-72
2023/03/25 01:07:19;;;;;;;5.40;1.20;;;;;;;;;;5032708;28;20255;-71
2023/03/25 01:09:47;;;;;;;4.80;1.38;;;;;;;;;;5032499;28;20029;-72
2023/03/25 01:12:14;;;;;;;4.03;1.30;;;;;;;;;;5032509;28;20052;-72
2023/03/25 01:14:40;;;;;;;4.40;1.27;;;;;;;;;;5031261;28;20030;-71
2023/03/25 01:17:06;;;;;;;5.78;1.50;;;;;;;;;;5031178;28;20057;-71
2023/03/25 01:19:31;;;;;;;2.28;1.20;;;;;;;;;;5032353;28;20049;-71
2023/03/25 01:21:56;;;;;;;2.53;1.23;;;;;;;;;;5031254;28;20108;-71
2023/03/25 01:24:22;;;;;;;4.17;1.20;;;;;;;;;;5033008;28;20797;-70
2023/03/25 01:26:47;;;;;;;3.58;1.02;;;;;;;;;;5032343;28;20725;-71
2023/03/25 01:29:17;;;;;;;1.98;1.05;;;;;;;;;;5031051;28;20082;-71
2023/03/25 01:31:43;;;;;;;5.93;1.30;;;;;;;;;;5033211;28;20029;-72
2023/03/25 01:34:09;;;;;;;3.78;1.27;;;;;;;;;;5032281;28;20412;-72
2023/03/25 01:36:38;;;;;;;4.95;1.30;;;;;;;;;;5032286;28;20522;-71
2023/03/25 01:39:06;;;;;;;5.95;1.30;;;;;;;;;;5032803;28;20026;-72
2023/03/25 01:41:33;;;;;;;4.13;1.30;;;;;;;;;;5035906;28;20057;-72
2023/03/25 01:44:28;;;;;;;3.58;1.17;;;;;;;;;;5034552;28;20029;-72
2023/03/25 01:46:56;;;;;;;5.55;1.40;;;;;;;;;;5035838;28;20031;-70
2023/03/25 01:49:25;;;;;;;4.15;1.30;;;;;;;;;;5034429;28;20542;-71
2023/03/25 01:51:56;;;;;;;4.28;1.50;;;;;;;;;;5035958;28;20026;-71
2023/03/25 01:54:22;;;;;;;4.13;1.20;;;;;;;;;;5035745;28;20396;-71
2023/03/25 01:56:49;;;;;;;5.22;1.40;;;;;;;;;;5035840;28;20025;-73
2023/03/25 01:59:17;;;;;;;4.20;1.30;;;;;;;;;;5035475;28;20543;-72
2023/03/25 02:01:46;;;;;;;6.47;1.25;;;;;;;;;;5035605;28;20569;-72
2023/03/25 02:04:21;;;;;;;3.75;1.13;;;;;;;;;;5035784;28;20388;-72
2023/03/25 02:06:56;;;;;;;3.35;1.17;;;;;;;;;;5035470;28;20018;-72
2023/03/25 02:09:24;;;;;;;3.25;1.05;;;;;;;;;;5034091;28;20476;-72
2023/03/25 02:11:53;;;;;;;5.50;1.25;;;;;;;;;;5035329;28;20378;-72
2023/03/25 02:14:23;;;;;;;2.97;1.25;;;;;;;;;;5035290;28;20025;-72
2023/03/25 02:17:08;;;;;;;3.72;1.20;;;;;;;;;;5035185;28;20476;-72
2023/03/25 02:20:10;;;;;;;4.75;1.40;;;;;;;;;;5035062;28;20034;-72
2023/03/25 02:23:20;;;;;;;4.72;1.27;;;;;;;;;;5035215;28;20055;-72
2023/03/25 02:26:07;;;;;;;3.45;1.10;;;;;;;;;;5035710;28;20395;-72
2023/03/25 02:28:46;;;;;;;4.03;1.20;;;;;;;;;;5035138;28;20395;-72
2023/03/25 02:31:31;;;;;;;3.65;1.15;;;;;;;;;;5035689;28;20446;-71
2023/03/25 02:34:02;;;;;;;6.43;1.30;;;;;;;;;;5035268;28;20028;-72
2023/03/25 02:36:55;;;;;;;3.97;1.25;;;;;;;;;;5035032;28;20037;-72
2023/03/25 02:39:46;;;;;;;4.82;1.10;;;;;;;;;;5035065;28;20031;-72
2023/03/25 02:42:19;;;;;;;5.32;1.10;;;;;;;;;;5035317;28;20554;-72
2023/03/25 02:44:59;;;;;;;4.00;1.10;;;;;;;;;;5035512;28;20029;-72
2023/03/25 02:47:31;;;;;;;3.25;1.05;;;;;;;;;;5034817;28;20037;-72
2023/03/25 02:50:03;;;;;;;4.15;1.02;;;;;;;;;;5035175;28;20045;-72
2023/03/25 02:52:33;;;;;;;1.50;1.00;;;;;;;;;;5034653;28;20104;-72
2023/03/25 02:55:03;;;;;;;3.85;1.13;;;;;;;;;;5034601;28;20036;-72
2023/03/25 02:57:31;;;;;;;3.15;1.10;;;;;;;;;;5033156;28;20032;-71
2023/03/25 02:59:57;;;;;;;3.28;1.08;;;;;;;;;;5034615;28;20033;-72
2023/03/25 03:02:26;;;;;;;4.68;1.20;;;;;;;;;;5034382;28;20440;-73
2023/03/25 03:04:54;;;;;;;3.13;1.20;;;;;;;;;;5034284;28;20040;-72
2023/03/25 03:07:26;;;;;;;5.35;1.20;;;;;;;;;;5034505;28;20053;-71
2023/03/25 03:10:18;;;;;;;5.20;1.45;;;;;;;;;;5034440;28;20071;-73
2023/03/25 03:13:09;;;;;;;3.28;1.20;;;;;;;;;;5034157;28;20017;-72
2023/03/25 03:15:49;;;;;;;3.95;1.20;;;;;;;;;;5034568;28;20377;-71
2023/03/25 03:18:33;;;;;;;3.67;1.08;;;;;;;;;;5034262;28;20044;-72
2023/03/25 03:21:22;;;;;;;4.35;1.40;;;;;;;;;;5032853;28;20400;-72
2023/03/25 03:24:08;;;;;;;5.35;1.20;;;;;;;;;;5033032;28;20395;-72
2023/03/25 03:26:42;;;;;;;4.22;1.35;;;;;;;;;;5033974;28;20484;-72
2023/03/25 03:29:07;;;;;;;;;;;;;;;;;;5034614;28;20472;-72
2023/03/25 03:31:51;;;;;;;2.88;1.23;;;;;;;;;;5033839;28;20390;-72
2023/03/25 03:34:25;;;;;;;;;;;;;;;;;;5033021;28;20026;-72
2023/03/25 03:36:53;;;;;;;2.85;1.23;;;;;;;;;;5034076;28;19913;-72
2023/03/25 03:39:23;;;;;;;5.95;1.20;;;;;;;;;;5033587;28;20068;-72
2023/03/25 03:41:54;;;;;;;5.40;1.27;;;;;;;;;;5032463;28;20033;-72
2023/03/25 03:44:24;;;;;;;4.68;1.20;;;;;;;;;;5032376;28;20044;-71
2023/03/25 03:46:57;;;;;;;4.90;1.10;;;;;;;;;;5033919;28;20535;-71
2023/03/25 03:49:28;;;;;;;3.00;1.10;;;;;;;;;;5033553;28;20028;-71
2023/03/25 03:52:05;;;;;;;1.23;0.88;;;;;;;;;;5033817;28;20480;-72
2023/03/25 03:54:36;;;;;;;2.60;1.15;;;;;;;;;;5033426;28;20619;-71
2023/03/25 03:57:07;;;;;;;3.78;1.25;;;;;;;;;;5033541;28;20029;-71
2023/03/25 03:59:41;;;;;;;4.47;1.33;;;;;;;;;;5033308;28;20028;-72
2023/03/25 04:02:13;;;;;;;5.80;1.30;;;;;;;;;;5033015;28;20033;-72
2023/03/25 04:04:41;;;;;;;1.92;1.00;;;;;;;;;;5033153;28;20029;-72
2023/03/25 04:07:13;;;;;;;4.72;1.27;;;;;;;;;;5033494;28;20036;-72
2023/03/25 04:09:53;;;;;;;2.88;1.10;;;;;;;;;;5033527;28;20404;-72
2023/03/25 04:12:31;;;;;;;2.75;1.00;;;;;;;;;;5033489;28;20029;-72
2023/03/25 04:15:00;;;;;;;3.88;0.85;;;;;;;;;;5033532;28;20036;-72
2023/03/25 04:17:28;;;;;;;3.58;1.00;;;;;;;;;;5033031;28;20033;-72
2023/03/25 04:19:57;;;;;;;2.95;0.90;;;;;;;;;;5031725;28;20026;-72
2023/03/25 04:22:23;;;;;;;3.80;0.90;;;;;;;;;;5033499;28;20104;-72
2023/03/25 04:24:50;;;;;;;2.90;0.75;;;;;;;;;;5033048;28;20049;-73
2023/03/25 04:27:17;;;;;;;1.52;0.80;;;;;;;;;;5032860;28;20592;-71
2023/03/25 04:29:43;;;;;;;1.55;0.80;;;;;;;;;;5032907;28;20029;-70
2023/03/25 04:32:10;;;;;;;2.25;0.60;;;;;;;;;;5032910;28;20029;-72
2023/03/25 04:34:36;;;;;;;2.22;0.70;;;;;;;;;;5033135;28;20101;-71
2023/03/25 04:37:01;;;;;;;2.38;0.60;;;;;;;;;;5032926;28;20037;-72
2023/03/25 04:39:28;;;;;;;1.85;0.70;;;;;;;;;;5032968;28;20025;-72
2023/03/25 04:41:55;;;;;;;1.70;0.65;;;;;;;;;;5032757;28;20025;-72
2023/03/25 04:44:22;;;;;;;1.75;0.90;;;;;;;;;;5032818;28;20021;-72
2023/03/25 04:46:47;;;;;;;2.53;0.55;;;;;;;;;;5031964;28;20018;-72
2023/03/25 04:49:19;;;;;;;2.50;0.75;;;;;;;;;;5032734;28;20478;-71
2023/03/25 04:51:48;;;;;;;2.53;0.70;;;;;;;;;;5032775;28;20029;-72
2023/03/25 04:54:13;;;;;;;2.55;0.98;;;;;;;;;;5033193;28;20097;-72
2023/03/25 04:56:39;;;;;;;1.77;0.60;;;;;;;;;;5032751;28;20112;-72
2023/03/25 04:59:05;;;;;;;1.65;0.60;;;;;;;;;;5032867;28;20033;-72
2023/03/25 05:01:31;;;;;;;1.92;0.63;;;;;;;;;;5032653;28;20053;-72
2023/03/25 05:04:03;;;;;;;0.90;0.60;;;;;;;;;;5032741;28;20025;-73
2023/03/25 05:06:33;;;;;;;2.15;0.55;;;;;;;;;;5032870;28;20028;-71
2023/03/25 05:09:03;;;;;;;0.82;0.45;;;;;;;;;;5032551;28;20022;-72
2023/03/25 05:11:32;;;;;;;3.08;0.55;;;;;;;;;;5033147;28;20083;-72
2023/03/25 05:13:57;;;;;;;1.60;0.60;;;;;;;;;;5033377;28;20021;-72
2023/03/25 05:16:23;;;;;;;1.20;0.50;;;;;;;;;;5036680;28;20100;-71
2023/03/25 05:18:48;;;;;;;1.55;0.55;;;;;;;;;;5036236;28;20117;-72
2023/03/25 05:21:15;;;;;;;0.75;0.40;;;;;;;;;;5036310;28;20029;-71
2023/03/25 05:23:40;;;;;;;1.15;0.50;;;;;;;;;;5036802;28;20034;-73
2023/03/25 05:26:07;;;;;;;0.93;0.50;;;;;;;;;;5036171;28;20025;-71
2023/03/25 05:28:32;;;;;;;2.10;0.45;;;;;;;;;;5036060;28;20029;-71
2023/03/25 05:30:58;;;;;;;0.77;0.40;;;;;;;;;;5034847;28;20104;-71
2023/03/25 05:33:23;;;;;;;1.00;0.30;;;;;;;;;;5036181;28;20029;-71
2023/03/25 05:35:48;;;;;;;4.30;0.70;;;;;;;;;;5034772;28;20022;-72
2023/03/25 05:38:17;;;;;;;0.10;0.10;;;;;;;;;;5034668;28;20255;-71
2023/03/25 05:40:47;;;;;;;0.70;0.40;;;;;;;;;;5035872;28;20032;-71
2023/03/25 05:43:14;;;;;;;0.57;0.40;;;;;;;;;;5036476;28;20079;-71
2023/03/25 05:45:40;;;;;;;1.08;0.35;;;;;;;;;;5036124;28;20060;-71
2023/03/25 05:48:07;;;;;;;1.83;0.30;;;;;;;;;;5034467;28;20022;-71
2023/03/25 05:50:32;;;;;;;0.57;0.25;;;;;;;;;;5036118;28;20431;-71
2023/03/25 05:52:58;;;;;;;1.90;0.22;;;;;;;;;;5036036;28;20052;-71
2023/03/25 05:55:24;;;;;;;0.22;0.20;;;;;;;;;;5036034;28;20018;-71
2023/03/25 05:57:50;;;;;;;0.20;0.20;;;;;;;;;;5035491;28;20056;-71
2023/03/25 06:00:18;;;;;;;1.23;0.50;;;;;;;;;;5035737;28;20030;-71
2023/03/25 06:02:43;;;;;;;0.73;0.30;;;;;;;;;;5035799;28;20029;-72
2023/03/25 06:05:12;;;;;;;0.80;0.20;;;;;;;;;;5035736;28;20030;-70
2023/03/25 06:07:47;;;;;;;1.02;0.45;;;;;;;;;;5035556;28;20381;-71
2023/03/25 06:10:16;;;;;;;0.63;0.32;;;;;;;;;;5035946;28;20103;-71
2023/03/25 06:12:44;;;;;;;2.63;0.43;;;;;;;;;;5035568;28;20022;-72
2023/03/25 06:15:11;;;;;;;1.65;0.47;;;;;;;;;;5035466;28;20017;-72
2023/03/25 06:17:40;;;;;;;2.10;0.20;;;;;;;;;;5034251;28;20022;-71
2023/03/25 06:20:11;;;;;;;1.15;0.20;;;;;;;;;;5035605;28;20104;-72
2023/03/25 06:22:38;;;;;;;0.22;0.22;;;;;;;;;;5034965;28;20072;-71
2023/03/25 06:25:03;;;;;;;0.68;0.30;;;;;;;;;;5035585;28;20029;-71
2023/03/25 06:27:33;;;;;;;0.47;0.22;;;;;;;;;;5034487;28;20436;-72
2023/03/25 06:29:58;;;;;;;0.65;0.35;;;;;;;;;;5035564;28;20029;-72
2023/03/25 06:32:24;;;;;;;0.40;0.33;;;;;;;;;;5035455;28;20045;-72
2023/03/25 06:34:50;;;;;;;2.47;0.50;;;;;;;;;;5035474;28;20286;-71
2023/03/25 06:37:15;;;;;;;2.75;0.90;;;;;;;;;;5033732;28;20059;-72
2023/03/25 06:39:40;;;;;;;1.30;0.60;;;;;;;;;;5035020;28;20025;-72
2023/03/25 06:42:06;;;;;;;0.90;0.40;;;;;;;;;;5034971;28;20447;-72
2023/03/25 06:44:31;;;;;;;1.52;0.47;;;;;;;;;;5034813;28;20640;-71
2023/03/25 06:46:56;;;;;;;1.25;0.60;;;;;;;;;;5034730;28;20544;-72
2023/03/25 06:49:22;;;;;;;0.90;0.50;;;;;;;;;;5034613;28;20393;-72
2023/03/25 06:51:47;;;;;;;1.90;0.98;;;;;;;;;;5034590;28;20625;-72
2023/03/25 06:54:13;;;;;;;2.65;0.70;;;;;;;;;;5034567;28;20108;-72
2023/03/25 06:56:39;;;;;;;2.25;0.95;;;;;;;;;;5034479;28;20087;-73
2023/03/25 06:59:04;;;;;;;2.35;0.63;;;;;;;;;;5034476;28;20088;-71
2023/03/25 07:01:29;;;;;;;1.40;0.30;;;;;;;;;;5034415;28;20511;-71
2023/03/25 07:03:55;;;;;;;1.63;0.65;;;;;;;;;;5034507;28;20035;-72
2023/03/25 07:06:21;;;;;;;1.80;0.40;;;;;;;;;;5034547;28;20400;-71
2023/03/25 07:08:47;;;;;;;2.42;0.52;;;;;;;;;;5034251;28;20373;-72
2023/03/25 07:11:14;;;;;;;2.50;0.57;;;;;;;;;;5034536;28;20108;-72
2023/03/25 07:13:40;;;;;;;0.68;0.40;;;;;;;;;;5034217;28;20036;-72
2023/03/25 07:16:06;;;;;;;1.70;0.47;;;;;;;;;;5034151;28;20107;-72
2023/03/25 07:18:31;;;;;;;1.27;0.50;;;;;;;;;;5034192;28;20036;-73
2023/03/25 07:20:56;;;;;;;3.78;0.52;;;;;;;;;;5034384;28;20022;-70
2023/03/25 07:23:22;;;;;;;3.70;0.90;;;;;;;;;;5034159;28;20061;-71
2023/03/25 07:25:47;;;;;;;1.42;0.50;;;;;;;;;;5034005;28;20087;-72
2023/03/25 07:28:13;;;;;;;2.42;0.68;;;;;;;;;;5034076;28;20017;-72
2023/03/25 07:30:38;;;;;;;3.00;0.63;;;;;;;;;;5034410;28;20021;-72
2023/03/25 07:33:03;;;;;;;2.92;0.60;;;;;;;;;;5033847;28;20037;-72
2023/03/25 07:35:28;;;;;;;1.70;0.60;;;;;;;;;;5034040;28;20518;-72
2023/03/25 07:37:54;;;;;;;3.15;0.80;;;;;;;;;;5033671;28;20028;-73
2023/03/25 07:40:19;;;;;;;1.95;0.50;;;;;;;;;;5033645;28;20467;-73
2023/03/25 07:42:44;;;;;;;2.37;0.50;;;;;;;;;;5033868;28;20510;-72
2023/03/25 07:45:10;;;;;;;2.58;0.50;;;;;;;;;;5033916;28;20796;-71
2023/03/25 07:47:36;;;;;;;2.13;0.50;;;;;;;;;;5033158;28;20022;-71
2023/03/25 07:50:01;;;;;;;2.70;0.73;;;;;;;;;;5033335;28;20029;-72
2023/03/25 07:52:27;;;;;;;1.27;0.50;;;;;;;;;;5033484;28;20029;-71
2023/03/25 07:54:52;;;;;;;3.25;0.70;;;;;;;;;;5032095;28;20519;-71
2023/03/25 07:57:17;;;;;;;4.13;0.40;;;;;;;;;;5031989;28;20493;-71
2023/03/25 07:59:43;;;;;;;1.97;0.47;;;;;;;;;;5033342;28;20792;-72
2023/03/25 08:02:12;;;;;;;1.55;0.40;;;;;;;;;;5031932;28;20600;-73
2023/03/25 08:04:37;;;;;;;2.63;0.55;;;;;;;;;;5033317;28;20033;-73
2023/03/25 08:07:02;;;;;;;1.93;0.80;;;;;;;;;;5033203;28;20422;-70
2023/03/25 08:09:28;;;;;;;2.58;0.60;;;;;;;;;;5033207;28;20610;-74
2023/03/25 08:11:53;;;;;;;2.20;0.60;;;;;;;;;;5033246;28;20497;-72
2023/03/25 08:14:19;;;;;;;0.80;0.40;;;;;;;;;;5033169;28;20029;-72
2023/03/25 08:16:44;;;;;;;0.25;0.15;;;;;;;;;;5031796;28;20255;-73
2023/03/25 08:19:09;;;;;;;0.35;0.22;;;;;;;;;;5032900;28;20045;-71
2023/03/25 08:21:35;;;;;;;0.93;0.60;;;;;;;;;;5033200;28;20025;-72
2023/03/25 08:24:03;;;;;;;0.60;0.30;;;;;;;;;;5033823;28;20048;-71
2023/03/25 08:26:30;;;;;;;0.85;0.50;;;;;;;;;;5032967;28;20270;-71
2023/03/25 08:28:56;;;;;;;2.92;0.50;;;;;;;;;;5033001;28;20021;-72
2023/03/25 08:31:22;;;;;;;1.77;0.40;;;;;;;;;;5031604;28;20021;-73
2023/03/25 08:33:48;;;;;;;1.10;0.50;;;;;;;;;;5033139;28;20028;-72
2023/03/25 08:36:18;;;;;;;1.07;0.63;;;;;;;;;;5032910;28;20108;-72
2023/03/25 08:38:43;;;;;;;1.02;0.60;;;;;;;;;;5033154;28;20254;-72
2023/03/25 08:41:08;;;;;;;2.92;0.70;;;;;;;;;;5032995;28;20041;-71
2023/03/25 08:43:34;;;;;;;1.92;0.60;;;;;;;;;;5032782;28;20389;-72
2023/03/25 08:45:59;;;;;;;4.15;0.70;;;;;;;;;;5032871;28;20056;-73
2023/03/25 08:48:24;;;;;;;2.30;0.60;;;;;;;;;;5033174;28;20028;-73
2023/03/25 08:50:50;;;;;;;2.05;0.50;;;;;;;;;;5036647;28;20377;-72
2023/03/25 08:53:15;;;;;;;1.10;0.40;;;;;;;;;;5037284;28;20087;-72
2023/03/25 08:55:40;;;;;;;0.97;0.40;;;;;;;;;;5036975;28;20298;-71
2023/03/25 08:58:07;;;;;;;0.97;0.50;;;;;;;;;;5036800;28;20284;-71
2023/03/25 09:00:33;;;;;;;3.13;0.68;;;;;;;;;;5036779;28;20301;-71
2023/03/25 09:02:59;;;;;;;1.75;0.50;;;;;;;;;;5036845;28;20036;-71
2023/03/25 09:05:25;;;;;;;0.47;0.45;;;;;;;;;;5036984;28;20025;-72
2023/03/25 09:07:50;;;;;;;1.23;0.70;;;;;;;;;;5035588;28;20388;-72
2023/03/25 09:10:16;;;;;;;1.63;0.60;;;;;;;;;;5035753;28;20052;-73
2023/03/25 09:12:41;;;;;;;0.67;0.43;;;;;;;;;;5035391;28;20274;-72
2023/03/25 09:15:07;;;;;;;1.42;0.57;;;;;;;;;;5036951;28;20261;-72
2023/03/25 09:17:32;;;;;;;2.60;0.50;;;;;;;;;;5037051;28;20068;-72
2023/03/25 09:19:58;;;;;;;0.80;0.40;;;;;;;;;;5036665;28;20061;-73
2023/03/25 09:22:23;;;;;;;0.90;0.50;;;;;;;;;;5036461;28;20286;-73
2023/03/25 09:24:48;;;;;;;0.50;0.40;;;;;;;;;;5036375;28;20250;-74
2023/03/25 09:27:14;;;;;;;2.17;0.40;;;;;;;;;;5036540;28;20049;-72
2023/03/25 09:29:39;;;;;;;1.02;0.50;;;;;;;;;;5036332;28;20017;-73
2023/03/25 09:32:05;;;;;;;1.00;0.43;;;;;;;;;;5034908;28;20033;-73
2023/03/25 09:34:31;;;;;;;2.33;0.57;;;;;;;;;;5036821;28;20036;-73
2023/03/25 09:36:56;;;;;;;0.60;0.38;;;;;;;;;;5036533;28;20045;-74
2023/03/25 09:39:22;;;;;;;1.17;0.70;;;;;;;;;;5035958;28;20030;-73
2023/03/25 09:42:12;;;;;;;2.85;0.65;;;;;;;;;;5036068;28;20052;-75
2023/03/25 09:44:51;;;;;;;1.33;0.50;;;;;;;;;;5034944;28;20114;-74
2023/03/25 09:47:19;;;;;;;1.15;0.50;;;;;;;;;;5036122;28;20037;-75
2023/03/25 09:49:52;;;;;;;1.10;0.60;;;;;;;;;;5037277;28;20021;-73
2023/03/25 09:52:24;;;;;;;0.40;0.40;;;;;;;;;;5034757;28;20063;-74
2023/03/25 09:54:54;;;;;;;2.22;0.50;;;;;;;;;;5040308;28;20108;-83
2023/03/25 09:57:25;;;;;;;0.95;0.47;;;;;;;;;;5038199;28;20136;-74
2023/03/25 09:59:51;;;;;;;1.05;0.55;;;;;;;;;;5042980;28;20031;-81
2023/03/25 10:02:34;;;;;;;0.65;0.50;;;;;;;;;;5034648;28;20113;-73
2023/03/25 10:05:33;;;;;;;1.13;0.57;;;;;;;;;;5035669;28;20067;-73
2023/03/25 10:08:39;;;;;;;1.27;0.50;;;;;;;;;;5038537;28;20032;-78
2023/03/25 10:11:47;;;;;;;1.38;0.50;;;;;;;;;;5036663;28;20599;-73
2023/03/25 10:14:24;;;;;;;0.68;0.45;;;;;;;;;;5024513;28;20488;-73
2023/03/25 10:17:03;;;;;;;1.83;0.55;;;;;;;;;;5035838;28;20021;-74
2023/03/25 10:19:41;;;;;;;2.00;0.35;;;;;;;;;;5035776;28;20037;-78
2023/03/25 10:22:17;;;;;;;3.97;0.50;;;;;;;;;;5037838;28;20048;-77
2023/03/25 10:24:48;;;;;;;1.80;0.60;;;;;;;;;;5034877;28;20139;-73
2023/03/25 10:27:34;;;;;;;0.63;0.57;;;;;;;;;;5036119;28;20026;-73
2023/03/25 10:30:10;;;;;;;2.58;0.60;;;;;;;;;;5035619;28;20438;-74
2023/03/25 10:32:56;;;;;;;1.08;0.70;;;;;;;;;;5035417;28;20025;-72
2023/03/25 10:35:24;;;;;;;0.90;0.70;;;;;;;;;;5035132;28;20025;-73
2023/03/25 10:37:52;;;;;;;1.15;0.80;;;;;;;;;;5035156;28;20030;-72
2023/03/25 10:40:28;;;;;;;2.70;0.98;;;;;;;;;;5034683;28;20029;-72
2023/03/25 10:43:08;;;;;;;1.13;0.60;;;;;;;;;;5034561;28;20106;-74
2023/03/25 10:45:34;;;;;;;2.35;0.70;;;;;;;;;;5035010;28;20080;-72
2023/03/25 10:48:10;;;;;;;0.70;0.60;;;;;;;;;;5034723;28;20471;-70
2023/03/25 10:50:35;;;;;;;1.08;0.55;;;;;;;;;;5034623;28;20056;-72
2023/03/25 10:53:02;;;;;;;1.20;0.60;;;;;;;;;;5034000;28;20481;-71
2023/03/25 10:55:33;;;;;;;1.83;0.70;;;;;;;;;;5034442;28;20029;-71
2023/03/25 10:58:00;;;;;;;1.05;0.60;;;;;;;;;;5034260;28;20087;-71
2023/03/25 11:00:26;;;;;;;1.50;0.73;;;;;;;;;;5034518;28;20033;-71
2023/03/25 11:02:53;;;;;;;0.77;0.25;;;;;;;;;;5034347;28;20022;-71
2023/03/25 11:05:21;;;;;;;1.10;0.57;;;;;;;;;;5034483;28;20061;-71
2023/03/25 11:07:51;;;;;;;0.60;0.50;;;;;;;;;;5034023;28;20021;-72
2023/03/25 11:10:22;;;;;;;0.95;0.47;;;;;;;;;;5034055;28;20025;-72
2023/03/25 11:12:50;;;;;;;1.00;0.43;;;;;;;;;;5032452;28;20029;-73
2023/03/25 11:15:45;;;;;;;0.30;0.30;;;;;;;;;;5032752;28;20083;-72
2023/03/25 11:18:13;;;;;;;;;;;;;;;;;;5029905;28;20038;-73
2023/03/25 11:20:44;;;;;;;0.65;0.43;;;;;;;;;;5033871;28;19963;-73
2023/03/25 11:23:19;;;;;;;1.05;0.40;;;;;;;;;;5033994;28;20104;-72
2023/03/25 11:25:45;;;;;;;1.58;0.70;;;;;;;;;;5034206;28;20029;-73
2023/03/25 11:28:16;;;;;;;0.63;0.40;;;;;;;;;;5032659;28;20116;-73
2023/03/25 11:31:12;;;;;;;0.73;0.45;;;;;;;;;;5033870;28;20100;-73
2023/03/25 11:33:38;;;;;;;1.00;0.32;;;;;;;;;;5032560;28;20021;-74
2023/03/25 11:36:22;;;;;;;0.93;0.40;;;;;;;;;;5033775;28;20063;-71
2023/03/25 11:38:52;;;;;;;0.73;0.50;;;;;;;;;;5033548;28;20026;-73
2023/03/25 11:41:18;;;;;;;2.70;0.50;;;;;;;;;;5033957;28;20037;-72
2023/03/25 11:43:47;;;;;;;1.17;0.70;;;;;;;;;;5033869;28;20087;-73
2023/03/25 11:46:15;;;;;;;1.73;0.70;;;;;;;;;;5033636;28;20030;-73
2023/03/25 11:48:43;;;;;;;0.52;0.50;;;;;;;;;;5033728;28;20053;-72
2023/03/25 11:51:12;;;;;;;0.98;0.40;;;;;;;;;;5033591;28;20022;-73
2023/03/25 11:53:44;;;;;;;0.47;0.40;;;;;;;;;;5033522;28;20096;-72
2023/03/25 11:56:13;;;;;;;1.45;0.30;;;;;;;;;;5033547;28;20033;-72
2023/03/25 11:58:39;;;;;;;0.20;0.20;;;;;;;;;;5033230;28;20400;-72
2023/03/25 12:01:27;;;;;;;0.88;0.40;;;;;;;;;;5032398;28;20028;-74
2023/03/25 12:04:19;;;;;;;3.28;0.40;;;;;;;;;;5033367;28;20025;-73
2023/03/25 12:07:08;;;;;;;0.40;0.40;;;;;;;;;;5033689;28;20021;-72
2023/03/25 12:09:34;;;;;;;0.95;0.40;;;;;;;;;;5033223;28;20021;-72
2023/03/25 12:12:09;;;;;;;1.25;0.38;;;;;;;;;;5033194;28;20063;-73
2023/03/25 12:14:50;;;;;;;0.70;0.35;;;;;;;;;;5033218;28;20057;-72
2023/03/25 12:17:28;;;;;;;1.23;0.40;;;;;;;;;;5033067;28;20496;-72
2023/03/25 12:20:33;;;;;;;2.80;0.60;;;;;;;;;;5033313;28;20067;-72
2023/03/25 12:23:19;;;;;;;0.47;0.47;;;;;;;;;;5026940;28;20120;-72
2023/03/25 12:26:10;;;;;;;1.73;0.30;;;;;;;;;;5031455;28;20029;-72
2023/03/25 12:28:55;;;;;;;2.47;0.55;;;;;;;;;;5033417;28;20444;-72
2023/03/25 12:31:58;;;;;;;0.60;0.40;;;;;;;;;;5033463;28;20381;-73
2023/03/25 12:34:43;;;;;;;1.05;0.30;;;;;;;;;;5032828;28;20040;-73
2023/03/25 12:37:19;;;;;;;1.20;0.43;;;;;;;;;;5031633;28;20064;-72
2023/03/25 12:39:50;;;;;;;1.42;0.50;;;;;;;;;;5032735;28;20028;-72
2023/03/25 12:42:33;;;;;;;0.60;0.30;;;;;;;;;;5032711;28;20488;-72
2023/03/25 12:45:05;;;;;;;3.00;0.40;;;;;;;;;;5032742;28;20026;-74
2023/03/25 12:47:52;;;;;;;0.90;0.43;;;;;;;;;;5032971;28;20477;-73
2023/03/25 12:50:40;;;;;;;1.83;0.43;;;;;;;;;;5033310;28;20025;-72
2023/03/25 12:53:38;;;;;;;1.08;0.47;;;;;;;;;;5033111;28;20097;-72
2023/03/25 12:56:28;;;;;;;0.93;0.40;;;;;;;;;;5031433;28;20030;-71
2023/03/25 12:59:24;;;;;;;1.40;0.40;;;;;;;;;;5031332;28;20022;-73
2023/03/25 13:02:24;;;;;;;1.45;0.40;;;;;;;;;;5032980;28;20029;-73
2023/03/25 13:05:17;;;;;;;1.95;0.50;;;;;;;;;;5031390;28;20026;-73
2023/03/25 13:07:46;;;;;;;1.48;0.40;;;;;;;;;;5031562;28;20394;-73
2023/03/25 13:10:19;;;;;;;0.90;0.50;;;;;;;;;;5032626;28;20026;-73
2023/03/25 13:12:52;;;;;;;1.45;0.30;;;;;;;;;;5032649;28;20507;-73
2023/03/25 13:15:33;;;;;;;0.20;0.20;;;;;;;;;;5032874;28;20480;-73
2023/03/25 13:18:27;;;;;;;0.30;0.30;;;;;;;;;;5032514;28;20017;-72
2023/03/25 13:21:04;;;;;;;0.22;0.20;;;;;;;;;;5032780;28;20036;-72
2023/03/25 13:23:33;;;;;;;0.40;0.40;;;;;;;;;;5032789;28;20028;-73
2023/03/25 13:26:01;;;;;;;0.60;0.25;;;;;;;;;;5032581;28;20412;-72
2023/03/25 13:28:37;;;;;;;0.57;0.30;;;;;;;;;;5032462;28;20128;-73
2023/03/25 13:31:11;;;;;;;0.70;0.40;;;;;;;;;;5031146;28;20021;-74
2023/03/25 13:33:43;;;;;;;1.05;0.57;;;;;;;;;;5032287;28;20025;-72
2023/03/25 13:36:13;;;;;;;0.85;0.40;;;;;;;;;;5034711;28;20017;-72
2023/03/25 13:38:44;;;;;;;0.40;0.30;;;;;;;;;;5036184;28;20095;-72
2023/03/25 13:41:18;;;;;;;0.85;0.40;;;;;;;;;;5036197;28;20022;-71
2023/03/25 13:44:15;;;;;;;1.80;0.50;;;;;;;;;;5035986;28;20029;-72
2023/03/25 13:47:02;;;;;;;0.73;0.35;;;;;;;;;;5036492;28;20057;-73
2023/03/25 13:49:54;;;;;;;1.60;0.52;;;;;;;;;;5035766;28;20030;-73
2023/03/25 13:52:20;;;;;;;0.60;0.30;;;;;;;;;;5035724;28;20033;-73
2023/03/25 13:55:00;;;;;;;1.10;0.70;;;;;;;;;;5035522;28;20052;-73
2023/03/25 13:57:54;;;;;;;1.05;0.50;;;;;;;;;;5035407;28;20079;-73
2023/03/25 14:00:43;;;;;;;0.82;0.57;;;;;;;;;;5035614;28;20021;-72
2023/03/25 14:03:27;;;;;;;1.00;0.60;;;;;;;;;;5035643;28;20060;-74
2023/03/25 14:06:15;;;;;;;2.28;1.05;;;;;;;;;;5035594;28;20025;-73
2023/03/25 14:09:06;;;;;;;4.20;2.42;;;;;;;;;;5035458;28;20038;-72
2023/03/25 14:11:45;;;;;;;1.65;1.23;;;;;;;;;;5035740;28;20029;-72
2023/03/25 14:14:14;;;;;;;5.60;2.10;;;;;;;;;;5035348;28;20025;-75
2023/03/25 14:17:01;;;;;;;1.25;0.82;;;;;;;;;;5035223;28;20029;-73
2023/03/25 14:19:30;;;;;;;2.50;0.77;;;;;;;;;;5033753;28;20147;-72
2023/03/25 14:21:56;;;;;;;1.08;0.60;;;;;;;;;;5036027;28;20079;-78
2023/03/25 14:24:28;;;;;;;2.88;0.85;;;;;;;;;;5034820;28;20476;-75
2023/03/25 14:27:05;;;;;;;1.02;0.55;;;;;;;;;;5035815;28;20081;-73
2023/03/25 14:29:37;;;;;;;2.88;0.80;;;;;;;;;;5034775;28;20032;-71
2023/03/25 14:32:14;;;;;;;1.80;0.75;;;;;;;;;;5034470;28;20522;-72
2023/03/25 14:34:40;;;;;;;1.40;0.60;;;;;;;;;;5033443;28;20029;-73
2023/03/25 14:37:05;;;;;;;0.65;0.50;;;;;;;;;;5035005;28;20036;-73
2023/03/25 14:39:30;;;;;;;2.53;0.53;;;;;;;;;;5034602;28;20121;-73
2023/03/25 14:42:10;;;;;;;3.53;0.57;;;;;;;;;;5034743;28;20029;-73
2023/03/25 14:44:39;;;;;;;1.55;0.80;;;;;;;;;;5034826;28;20104;-73
2023/03/25 14:47:11;;;;;;;0.93;0.47;;;;;;;;;;5032877;28;20036;-71
2023/03/25 14:50:14;;;;;;;1.95;0.32;;;;;;;;;;5034681;28;20540;-71
2023/03/25 14:52:45;;;;;;;3.05;0.45;;;;;;;;;;5034969;28;20029;-71
2023/03/25 14:55:25;;;;;;;1.20;0.40;;;;;;;;;;5034890;28;20071;-72
2023/03/25 14:57:57;;;;;;;0.52;0.22;;;;;;;;;;5033304;28;20029;-72
2023/03/25 15:00:28;;;;;;;0.32;0.30;;;;;;;;;;5034533;28;20060;-72
2023/03/25 15:03:09;;;;;;;0.35;0.17;;;;;;;;;;5033927;28;20032;-72
2023/03/25 15:05:36;;;;;;;2.30;0.38;;;;;;;;;;5034486;28;20104;-72
2023/03/25 15:08:05;;;;;;;0.80;0.30;;;;;;;;;;5034570;28;20398;-72
2023/03/25 15:10:43;;;;;;;0.30;0.30;;;;;;;;;;5034408;28;20014;-72